createdAt,value
2019-03-06T00:00:38.208Z,71.07
2019-03-06T00:03:08.631Z,71.02
2019-03-06T00:05:39.168Z,69.80
2019-03-06T00:08:09.586Z,68.97
2019-03-06T00:10:39.935Z,68.65
2019-03-06T00:13:10.280Z,68.85
2019-03-06T00:15:40.729Z,68.54
2019-03-06T00:18:11.189Z,68.11
2019-03-06T00:20:41.557Z,68.61
2019-03-06T00:23:12.814Z,67.79
2019-03-06T00:25:43.136Z,68.90
2019-03-06T00:28:13.666Z,69.08
2019-03-06T00:30:43.996Z,69.00
2019-03-06T00:33:15.362Z,68.58
2019-03-06T00:35:47.463Z,68.50
2019-03-06T00:38:17.804Z,68.29
2019-03-06T00:40:52.748Z,68.43
2019-03-06T00:43:23.100Z,68.04
2019-03-06T00:45:53.473Z,68.98
2019-03-06T00:48:24.982Z,68.27
2019-03-06T00:50:55.293Z,68.40
2019-03-06T00:53:25.866Z,68.05
2019-03-06T00:55:56.237Z,68.39
2019-03-06T00:58:27.709Z,67.67
2019-03-06T01:00:58.346Z,69.21
2019-03-06T01:03:28.666Z,67.88
2019-03-06T01:05:58.981Z,68.34
2019-03-06T01:08:29.372Z,67.31
2019-03-06T01:10:59.729Z,68.05
2019-03-06T01:13:30.048Z,68.23
2019-03-06T01:16:00.446Z,68.00
2019-03-06T01:18:30.824Z,67.21
2019-03-06T01:21:01.183Z,66.94
2019-03-06T01:23:31.653Z,66.25
2019-03-06T01:26:02.040Z,66.24
2019-03-06T01:28:32.428Z,66.97
2019-03-06T01:31:02.790Z,66.39
2019-03-06T01:33:34.858Z,67.31
2019-03-06T01:36:06.869Z,67.46
2019-03-06T01:38:55.232Z,66.03
2019-03-06T01:41:27.179Z,65.28
2019-03-06T01:43:59.144Z,67.11
2019-03-06T01:46:29.463Z,67.86
2019-03-06T01:48:59.823Z,66.18
2019-03-06T01:51:30.222Z,65.95
2019-03-06T01:54:00.605Z,65.34
2019-03-06T01:56:31.008Z,64.87
2019-03-06T01:59:01.295Z,64.87
2019-03-06T02:01:31.598Z,65.02
2019-03-06T02:04:02.827Z,65.35
2019-03-06T02:06:33.213Z,65.85
2019-03-06T02:09:03.681Z,65.58
2019-03-06T02:11:35.592Z,65.66
2019-03-06T02:14:05.890Z,66.78
2019-03-06T02:16:36.263Z,65.73
2019-03-06T02:19:07.758Z,65.00
2019-03-06T02:21:38.126Z,65.55
2019-03-06T02:24:08.441Z,66.28
2019-03-06T02:26:39.389Z,66.46
2019-03-06T02:29:09.715Z,66.20
2019-03-06T02:31:40.011Z,65.24
2019-03-06T02:34:10.403Z,64.70
2019-03-06T02:36:40.789Z,64.10
2019-03-06T02:39:11.380Z,64.59
2019-03-06T02:41:41.765Z,62.95
2019-03-06T02:44:12.144Z,63.96
2019-03-06T02:46:42.509Z,63.32
2019-03-06T02:49:12.913Z,62.87
2019-03-06T02:51:43.229Z,63.33
2019-03-06T02:54:13.550Z,63.35
2019-03-06T02:56:45.040Z,62.65
2019-03-06T02:59:17.070Z,63.48
2019-03-06T03:01:55.305Z,62.38
2019-03-06T03:04:33.131Z,62.50
2019-03-06T03:07:05.181Z,62.62
2019-03-06T03:09:35.573Z,62.13
2019-03-06T03:12:05.953Z,61.69
2019-03-06T03:14:36.320Z,62.38
2019-03-06T03:17:06.720Z,62.44
2019-03-06T03:19:37.102Z,63.32
2019-03-06T03:22:07.753Z,62.39
2019-03-06T03:24:38.138Z,63.96
2019-03-06T03:27:08.532Z,62.50
2019-03-06T03:29:38.959Z,62.80
2019-03-06T03:32:09.326Z,63.07
2019-03-06T03:34:39.698Z,62.79
2019-03-06T03:37:10.063Z,64.15
2019-03-06T03:39:40.455Z,64.39
2019-03-06T03:42:10.854Z,64.71
2019-03-06T03:44:41.218Z,65.62
2019-03-06T03:47:11.598Z,65.19
2019-03-06T03:49:43.041Z,64.41
2019-03-06T03:52:13.365Z,63.19
2019-03-06T03:54:43.760Z,64.20
2019-03-06T03:57:14.321Z,63.83
2019-03-06T03:59:44.649Z,62.48
2019-03-06T04:02:15.019Z,62.74
2019-03-06T04:04:45.396Z,61.76
2019-03-06T04:07:15.811Z,61.60
2019-03-06T04:09:46.380Z,61.66
2019-03-06T04:12:16.767Z,62.22
2019-03-06T04:14:47.085Z,62.53
2019-03-06T04:17:17.416Z,62.83
2019-03-06T04:19:47.703Z,62.60
2019-03-06T04:22:18.098Z,62.44
2019-03-06T04:24:48.492Z,61.90
2019-03-06T04:27:18.748Z,61.41
2019-03-06T04:29:49.049Z,60.96
2019-03-06T04:32:19.349Z,61.57
2019-03-06T04:34:49.768Z,61.11
2019-03-06T04:37:20.107Z,62.10
2019-03-06T04:39:50.389Z,60.54
2019-03-06T04:42:20.766Z,59.42
2019-03-06T04:44:51.298Z,60.20
2019-03-06T04:47:21.628Z,60.22
2019-03-06T04:49:53.014Z,59.29
2019-03-06T04:52:24.474Z,59.49
2019-03-06T04:54:54.765Z,59.63
2019-03-06T04:57:26.039Z,59.45
2019-03-06T04:59:56.314Z,59.37
2019-03-06T05:02:26.607Z,59.65
2019-03-06T05:04:56.904Z,58.94
2019-03-06T05:07:27.540Z,58.83
2019-03-06T05:09:57.831Z,58.62
2019-03-06T05:12:28.090Z,57.88
2019-03-06T05:14:58.402Z,58.18
2019-03-06T05:17:30.321Z,58.79
2019-03-06T05:20:00.590Z,58.61
2019-03-06T05:22:30.893Z,58.18
2019-03-06T05:25:01.413Z,57.63
2019-03-06T05:27:32.749Z,58.39
2019-03-06T05:30:03.983Z,58.69
2019-03-06T05:32:35.983Z,58.75
2019-03-06T05:35:27.860Z,58.97
2019-03-06T05:38:13.028Z,58.36
2019-03-06T05:40:43.436Z,57.75
2019-03-06T05:43:13.851Z,57.76
2019-03-06T05:45:44.184Z,57.30
2019-03-06T05:48:14.507Z,57.88
2019-03-06T05:50:44.970Z,57.81
2019-03-06T05:53:15.420Z,57.87
2019-03-06T05:55:45.785Z,57.42
2019-03-06T05:58:16.215Z,57.04
2019-03-06T06:00:48.038Z,56.68
2019-03-06T06:03:18.709Z,58.24
2019-03-06T06:05:49.259Z,60.70
2019-03-06T06:08:19.939Z,62.87
2019-03-06T06:10:51.978Z,62.99
2019-03-06T06:13:22.384Z,60.28
2019-03-06T06:15:52.761Z,58.49
2019-03-06T06:18:23.056Z,57.02
2019-03-06T06:20:55.044Z,56.18
2019-03-06T06:23:45.417Z,55.78
2019-03-06T06:26:15.761Z,56.45
2019-03-06T06:28:46.928Z,59.36
2019-03-06T06:31:17.334Z,60.72
2019-03-06T06:33:47.709Z,55.27
2019-03-06T06:36:18.020Z,50.07
2019-03-06T06:39:06.929Z,45.53
2019-03-06T06:41:37.422Z,41.48
2019-03-06T06:44:07.720Z,39.51
2019-03-06T06:46:38.056Z,38.26
2019-03-06T06:49:08.343Z,39.29
2019-03-06T06:51:50.331Z,38.78
2019-03-06T06:54:26.708Z,37.75
2019-03-06T06:57:15.381Z,37.40
2019-03-06T07:00:12.693Z,36.22
2019-03-06T07:02:59.890Z,35.36
2019-03-06T07:05:37.838Z,35.78
2019-03-06T07:08:26.514Z,35.78
2019-03-06T07:11:01.412Z,36.83
2019-03-06T07:13:42.760Z,36.68
2019-03-06T07:16:33.007Z,36.44
2019-03-06T07:19:14.023Z,36.16
2019-03-06T07:21:48.904Z,35.42
2019-03-06T07:24:20.918Z,36.32
2019-03-06T07:27:01.074Z,36.22
2019-03-06T07:29:39.167Z,37.42
2019-03-06T07:32:26.316Z,38.07
2019-03-06T07:35:44.320Z,37.78
2019-03-06T07:38:14.611Z,38.21
2019-03-06T07:41:02.991Z,40.64
2019-03-06T07:43:50.437Z,42.69
2019-03-06T07:46:25.082Z,43.19
2019-03-06T07:48:57.090Z,43.30
2019-03-06T07:51:45.254Z,43.37
2019-03-06T07:54:23.153Z,43.56
2019-03-06T07:57:13.526Z,43.13
2019-03-06T07:59:44.154Z,44.33
2019-03-06T08:02:38.914Z,44.83
2019-03-06T08:05:10.258Z,42.66
2019-03-06T08:07:40.640Z,41.79
2019-03-06T08:10:15.115Z,40.61
2019-03-06T08:12:50.162Z,39.92
2019-03-06T08:15:22.100Z,39.79
2019-03-06T08:17:54.145Z,39.45
2019-03-06T08:20:29.065Z,39.83
2019-03-06T08:23:04.067Z,38.55
2019-03-06T08:25:47.795Z,37.20
2019-03-06T08:28:18.206Z,37.76
2019-03-06T08:30:55.891Z,36.48
2019-03-06T08:33:26.553Z,36.59
2019-03-06T08:35:56.872Z,36.87
2019-03-06T08:38:27.856Z,36.63
2019-03-06T08:41:04.385Z,37.16
2019-03-06T08:43:30.241Z,37.33
2019-03-06T08:46:11.454Z,37.42
2019-03-06T08:48:46.482Z,37.66
2019-03-06T08:51:18.433Z,37.11
2019-03-06T08:53:56.380Z,37.55
2019-03-06T08:56:44.828Z,37.17
2019-03-06T08:59:19.446Z,37.70
2019-03-06T09:02:00.244Z,37.49
2019-03-06T09:04:25.856Z,38.89
2019-03-06T09:06:57.915Z,38.42
2019-03-06T09:09:43.752Z,38.81
2019-03-06T09:12:31.996Z,38.84
2019-03-06T09:15:06.648Z,38.36
2019-03-06T09:17:38.595Z,39.05
2019-03-06T09:20:20.667Z,40.17
2019-03-06T09:22:58.637Z,40.96
2019-03-06T09:25:40.854Z,41.08
2019-03-06T09:28:15.646Z,39.92
2019-03-06T09:30:48.676Z,42.95
2019-03-06T09:33:20.667Z,42.07
2019-03-06T09:36:07.958Z,42.39
2019-03-06T09:38:58.150Z,42.17
2019-03-06T09:41:30.185Z,41.27
2019-03-06T09:44:02.251Z,40.18
2019-03-06T09:46:43.374Z,40.17
2019-03-06T09:49:15.399Z,40.08
2019-03-06T09:51:56.218Z,39.72
2019-03-06T09:54:31.180Z,40.40
2019-03-06T09:57:15.105Z,39.99
2019-03-06T09:59:49.923Z,39.61
2019-03-06T10:02:21.910Z,39.66
2019-03-06T10:04:59.653Z,38.87
2019-03-06T10:07:31.672Z,39.04
2019-03-06T10:10:20.050Z,39.36
2019-03-06T10:13:10.391Z,39.41
2019-03-06T10:15:54.503Z,39.40
2019-03-06T10:18:26.922Z,39.20
2019-03-06T10:20:57.338Z,39.79
2019-03-06T10:23:27.635Z,39.22
2019-03-06T10:25:57.943Z,40.19
2019-03-06T10:28:28.319Z,39.94
2019-03-06T10:31:02.290Z,39.90
2019-03-06T10:33:30.783Z,40.04
2019-03-06T10:36:01.478Z,39.86
2019-03-06T10:38:31.855Z,38.73
2019-03-06T10:41:03.038Z,38.24
2019-03-06T10:43:33.605Z,38.96
2019-03-06T10:46:04.025Z,39.74
2019-03-06T10:48:34.379Z,39.41
2019-03-06T10:51:04.757Z,40.62
2019-03-06T10:53:41.246Z,40.84
2019-03-06T10:56:08.092Z,41.03
2019-03-06T10:58:38.462Z,41.34
2019-03-06T11:01:09.218Z,42.28
2019-03-06T11:03:41.234Z,43.00
2019-03-06T11:06:12.386Z,43.43
2019-03-06T11:08:42.726Z,44.50
2019-03-06T11:11:13.335Z,43.51
2019-03-06T11:13:43.632Z,43.24
2019-03-06T11:16:17.906Z,44.16
2019-03-06T11:18:46.168Z,42.63
2019-03-06T11:21:17.773Z,41.08
2019-03-06T11:23:48.061Z,43.01
2019-03-06T11:26:18.366Z,44.13
2019-03-06T11:28:49.762Z,42.94
2019-03-06T11:31:20.364Z,41.19
2019-03-06T11:33:50.660Z,41.64
2019-03-06T11:36:21.034Z,42.71
2019-03-06T11:38:51.405Z,41.70
2019-03-06T11:41:21.686Z,41.77
2019-03-06T11:43:54.997Z,42.99
2019-03-06T11:46:25.352Z,42.26
2019-03-06T11:48:55.707Z,41.70
2019-03-06T11:51:26.022Z,42.37
2019-03-06T11:53:56.391Z,42.56
2019-03-06T11:56:26.769Z,42.59
2019-03-06T11:58:57.152Z,43.50
2019-03-06T12:01:28.414Z,42.04
2019-03-06T12:03:58.695Z,41.84
2019-03-06T12:06:29.077Z,42.48
2019-03-06T12:08:59.490Z,42.58
2019-03-06T12:11:30.132Z,41.87
2019-03-06T12:14:00.509Z,40.90
2019-03-06T12:16:31.760Z,43.27
2019-03-06T12:19:02.137Z,40.34
2019-03-06T12:21:32.807Z,40.12
2019-03-06T12:24:03.089Z,40.49
2019-03-06T12:26:33.452Z,39.65
2019-03-06T12:29:03.757Z,39.31
2019-03-06T12:31:34.156Z,39.82
2019-03-06T12:34:04.434Z,39.41
2019-03-06T12:36:36.177Z,39.65
2019-03-06T12:39:06.544Z,37.96
2019-03-06T12:41:38.503Z,39.24
2019-03-06T12:44:10.597Z,37.04
2019-03-06T12:46:41.043Z,37.39
2019-03-06T12:49:11.342Z,37.56
2019-03-06T12:51:41.729Z,36.72
2019-03-06T12:54:12.878Z,38.07
2019-03-06T12:56:43.279Z,37.10
2019-03-06T12:59:13.757Z,36.93
2019-03-06T13:01:44.123Z,38.16
2019-03-06T13:04:14.426Z,37.77
2019-03-06T13:06:44.874Z,37.47
2019-03-06T13:09:16.824Z,36.45
2019-03-06T13:11:47.192Z,35.39
2019-03-06T13:14:17.601Z,37.44
2019-03-06T13:16:47.973Z,35.71
2019-03-06T13:19:18.482Z,35.88
2019-03-06T13:21:48.846Z,36.80
2019-03-06T13:24:19.336Z,36.64
2019-03-06T13:26:49.709Z,37.47
2019-03-06T13:29:20.337Z,36.93
2019-03-06T13:31:50.719Z,36.47
2019-03-06T13:34:25.468Z,36.76
2019-03-06T13:36:56.214Z,36.50
2019-03-06T13:39:26.600Z,36.45
2019-03-06T13:41:57.085Z,37.26
2019-03-06T13:44:27.533Z,37.64
2019-03-06T13:46:57.920Z,38.02
2019-03-06T13:49:28.202Z,38.42
2019-03-06T13:51:58.494Z,38.66
2019-03-06T13:54:29.138Z,37.21
2019-03-06T13:56:59.515Z,37.91
2019-03-06T13:59:29.886Z,37.45
2019-03-06T14:02:00.251Z,38.43
2019-03-06T14:04:30.993Z,36.08
2019-03-06T14:07:03.093Z,36.72
2019-03-06T14:09:33.461Z,35.43
2019-03-06T14:12:03.831Z,35.13
2019-03-06T14:14:35.313Z,35.86
2019-03-06T14:17:05.834Z,35.81
2019-03-06T14:19:36.192Z,35.04
2019-03-06T14:22:06.739Z,35.81
2019-03-06T14:24:37.175Z,36.41
2019-03-06T14:27:07.548Z,35.41
2019-03-06T14:29:37.910Z,34.85
2019-03-06T14:32:14.704Z,35.63
2019-03-06T14:34:40.404Z,35.46
2019-03-06T14:37:10.753Z,35.66
2019-03-06T14:39:42.102Z,36.24
2019-03-06T14:42:12.870Z,36.63
2019-03-06T14:44:43.173Z,37.58
2019-03-06T14:47:13.535Z,39.28
2019-03-06T14:49:43.846Z,39.14
2019-03-06T14:52:14.154Z,40.67
2019-03-06T14:54:44.446Z,40.25
2019-03-06T14:57:14.829Z,39.72
2019-03-06T14:59:45.105Z,39.88
2019-03-06T15:02:15.500Z,38.99
2019-03-06T15:04:45.807Z,37.31
2019-03-06T15:07:16.194Z,38.05
2019-03-06T15:09:46.488Z,39.25
2019-03-06T15:12:16.883Z,37.88
2019-03-06T15:14:47.577Z,38.77
2019-03-06T15:17:19.567Z,39.60
2019-03-06T15:19:49.855Z,37.83
2019-03-06T15:22:20.230Z,39.15
2019-03-06T15:24:50.559Z,39.16
2019-03-06T15:27:21.217Z,39.34
2019-03-06T15:29:51.533Z,39.85
2019-03-06T15:32:21.888Z,40.51
2019-03-06T15:34:52.293Z,40.69
2019-03-06T15:37:22.606Z,40.48
2019-03-06T15:39:52.975Z,41.70
2019-03-06T15:42:23.452Z,41.96
2019-03-06T15:44:53.797Z,42.03
2019-03-06T15:47:33.260Z,41.83
2019-03-06T15:49:56.169Z,42.77
2019-03-06T15:52:26.674Z,42.61
2019-03-06T15:54:57.442Z,42.61
2019-03-06T15:57:27.923Z,43.44
2019-03-06T15:59:59.641Z,42.82
2019-03-06T16:02:30.245Z,43.03
2019-03-06T16:05:00.708Z,43.31
2019-03-06T16:07:32.096Z,44.21
2019-03-06T16:10:03.047Z,43.31
2019-03-06T16:12:33.667Z,43.51
2019-03-06T16:15:06.407Z,43.35
2019-03-06T16:17:37.449Z,43.99
2019-03-06T16:20:13.336Z,43.91
2019-03-06T16:22:44.707Z,44.10
2019-03-06T16:25:15.769Z,43.81
2019-03-06T16:27:47.477Z,44.68
2019-03-06T16:30:23.586Z,44.60
2019-03-06T16:32:54.708Z,44.19
2019-03-06T16:35:25.311Z,45.38
2019-03-06T16:37:55.828Z,44.95
2019-03-06T16:40:26.879Z,44.60
2019-03-06T16:42:57.646Z,45.96
2019-03-06T16:45:30.193Z,45.32
2019-03-06T16:48:00.943Z,45.71
2019-03-06T16:50:33.585Z,45.24
2019-03-06T16:53:04.803Z,44.48
2019-03-06T16:55:35.381Z,45.85
2019-03-06T16:58:06.624Z,45.83
2019-03-06T17:00:38.070Z,45.28
2019-03-06T17:03:10.268Z,45.59
2019-03-06T17:05:41.754Z,45.84
2019-03-06T17:08:12.752Z,46.02
2019-03-06T17:10:43.200Z,45.98
2019-03-06T17:13:14.055Z,45.14
2019-03-06T17:15:44.550Z,46.43
2019-03-06T17:18:15.876Z,45.77
2019-03-06T17:20:49.249Z,46.07
2019-03-06T17:23:19.606Z,46.67
2019-03-06T17:25:49.984Z,46.83
2019-03-06T17:28:20.360Z,46.65
2019-03-06T17:30:51.022Z,47.72
2019-03-06T17:33:21.446Z,48.00
2019-03-06T17:35:51.820Z,47.08
2019-03-06T17:38:22.113Z,47.42
2019-03-06T17:40:52.503Z,47.21
2019-03-06T17:43:24.582Z,47.51
2019-03-06T17:45:55.073Z,46.45
2019-03-06T17:48:26.586Z,46.39
2019-03-06T17:50:57.147Z,47.48
2019-03-06T17:53:27.546Z,47.27
2019-03-06T17:55:58.202Z,48.46
2019-03-06T17:58:28.713Z,48.18
2019-03-06T18:01:00.936Z,46.30
2019-03-06T18:03:46.211Z,48.08
2019-03-06T18:06:17.143Z,47.45
2019-03-06T18:08:47.854Z,47.47
2019-03-06T18:11:18.625Z,46.98
2019-03-06T18:13:49.073Z,47.76
2019-03-06T18:16:19.474Z,48.22
2019-03-06T18:18:49.992Z,48.29
2019-03-06T18:21:20.794Z,47.77
2019-03-06T18:23:51.257Z,48.60
2019-03-06T18:26:21.631Z,48.06
2019-03-06T18:28:54.621Z,46.26
2019-03-06T18:31:24.800Z,47.82
2019-03-06T18:33:55.674Z,47.55
2019-03-06T18:36:26.091Z,46.52
2019-03-06T18:38:56.512Z,45.81
2019-03-06T18:41:26.855Z,46.09
2019-03-06T18:43:57.433Z,46.94
2019-03-06T18:46:28.819Z,46.05
2019-03-06T18:48:59.504Z,48.32
2019-03-06T18:51:30.125Z,47.16
2019-03-06T18:54:00.639Z,46.61
2019-03-06T18:56:32.445Z,45.66
2019-03-06T18:59:03.186Z,46.09
2019-03-06T19:01:33.815Z,46.44
2019-03-06T19:04:05.151Z,44.86
2019-03-06T19:06:35.695Z,47.03
2019-03-06T19:09:06.764Z,46.20
2019-03-06T19:11:39.019Z,45.71
2019-03-06T19:14:09.436Z,45.74
2019-03-06T19:16:39.896Z,47.71
2019-03-06T19:19:10.577Z,47.42
2019-03-06T19:21:41.402Z,47.27
2019-03-06T19:24:11.877Z,48.49
2019-03-06T19:26:45.127Z,47.72
2019-03-06T19:29:15.822Z,47.69
2019-03-06T19:31:46.583Z,49.39
2019-03-06T19:34:17.230Z,49.09
2019-03-06T19:36:47.621Z,48.45
2019-03-06T19:39:19.157Z,49.83
2019-03-06T19:41:49.621Z,49.16
2019-03-06T19:44:20.079Z,49.65
2019-03-06T19:46:50.816Z,48.70
2019-03-06T19:49:21.418Z,49.39
2019-03-06T19:51:51.966Z,49.91
2019-03-06T19:54:23.325Z,51.01
2019-03-06T19:56:55.072Z,50.98
2019-03-06T19:59:26.099Z,50.73
2019-03-06T20:01:56.650Z,50.26
2019-03-06T20:04:28.761Z,50.80
2019-03-06T20:07:01.317Z,49.86
2019-03-06T20:09:31.707Z,50.89
2019-03-06T20:12:02.167Z,50.46
2019-03-06T20:14:32.834Z,51.09
2019-03-06T20:17:04.982Z,50.13
2019-03-06T20:19:35.671Z,50.74
2019-03-06T20:22:06.195Z,50.90
2019-03-06T20:24:39.300Z,49.75
2019-03-06T20:27:10.106Z,50.47
2019-03-06T20:29:40.892Z,51.50
2019-03-06T20:32:11.864Z,51.12
2019-03-06T20:34:42.404Z,51.80
2019-03-06T20:37:12.991Z,50.50
2019-03-06T20:39:43.689Z,52.17
2019-03-06T20:42:14.497Z,51.69
2019-03-06T20:44:45.135Z,51.48
2019-03-06T20:47:15.485Z,51.39
2019-03-06T20:49:47.228Z,51.50
2019-03-06T20:52:20.530Z,52.30
2019-03-06T20:54:50.925Z,52.72
2019-03-06T20:57:21.918Z,52.44
2019-03-06T20:59:53.220Z,52.73
2019-03-06T21:02:24.024Z,52.85
2019-03-06T21:04:55.569Z,52.64
2019-03-06T21:07:26.130Z,52.44
2019-03-06T21:09:56.638Z,52.70
2019-03-06T21:12:28.312Z,53.39
2019-03-06T21:14:58.651Z,53.09
2019-03-06T21:17:29.741Z,52.68
2019-03-06T21:20:00.393Z,53.43
2019-03-06T21:22:32.114Z,52.79
2019-03-06T21:25:05.305Z,53.35
2019-03-06T21:27:35.710Z,53.37
2019-03-06T21:30:25.285Z,53.33
2019-03-06T21:32:57.594Z,53.28
2019-03-06T21:35:27.985Z,53.95
2019-03-06T21:37:58.531Z,52.48
2019-03-06T21:40:29.269Z,52.36
2019-03-06T21:43:00.363Z,52.46
2019-03-06T21:45:33.752Z,52.65
2019-03-06T21:48:03.694Z,53.54
2019-03-06T21:50:34.024Z,52.91
2019-03-06T21:53:04.450Z,53.27
2019-03-06T21:55:34.734Z,53.23
2019-03-06T21:58:05.040Z,53.21
2019-03-06T22:00:35.314Z,53.74
2019-03-06T22:03:06.684Z,53.21
2019-03-06T22:05:39.391Z,53.55
2019-03-06T22:08:10.069Z,54.11
2019-03-06T22:10:40.577Z,54.65
2019-03-06T22:13:10.902Z,53.15
2019-03-06T22:15:41.262Z,53.65
2019-03-06T22:18:11.619Z,54.03
2019-03-06T22:20:42.181Z,53.96
2019-03-06T22:23:12.456Z,53.56
2019-03-06T22:25:43.468Z,53.71
2019-03-06T22:28:13.830Z,52.98
2019-03-06T22:30:44.118Z,53.56
2019-03-06T22:33:14.400Z,54.11
2019-03-06T22:35:44.958Z,53.09
2019-03-06T22:38:15.287Z,54.70
2019-03-06T22:40:45.622Z,53.57
2019-03-06T22:43:16.066Z,53.84
2019-03-06T22:45:46.363Z,54.81
2019-03-06T22:48:16.910Z,53.52
2019-03-06T22:50:47.204Z,53.05
2019-03-06T22:53:17.514Z,52.44
2019-03-06T22:55:47.798Z,51.80
2019-03-06T22:58:18.132Z,53.53
2019-03-06T23:00:55.826Z,53.57
2019-03-06T23:03:26.518Z,53.98
2019-03-06T23:05:58.368Z,53.84
2019-03-06T23:08:29.442Z,54.49
2019-03-06T23:10:59.984Z,54.78
2019-03-06T23:13:30.262Z,54.23
2019-03-06T23:16:00.595Z,55.08
2019-03-06T23:18:32.391Z,55.68
2019-03-06T23:21:02.672Z,55.25
2019-03-06T23:23:32.970Z,55.79
2019-03-06T23:26:03.329Z,54.36
2019-03-06T23:28:33.706Z,55.03
2019-03-06T23:31:06.948Z,54.72
2019-03-06T23:33:37.319Z,55.18
2019-03-06T23:36:07.606Z,55.19
2019-03-06T23:38:38.092Z,55.60
2019-03-06T23:41:08.445Z,54.88
2019-03-06T23:43:38.808Z,55.32
2019-03-06T23:46:11.615Z,55.40
2019-03-06T23:48:41.420Z,55.96
2019-03-06T23:51:13.419Z,56.71
2019-03-06T23:53:48.373Z,55.64
2019-03-06T23:56:18.712Z,55.14
2019-03-06T23:58:50.067Z,55.36
